Time;durP1;ratioP1;P1;durP2;ratioP2;P2;SDS_P1;SDS_P2;PMS_P1;PMS_P2;Temp;Humidity;BMP_temperature;BMP_pressure;BME280_temperature;BME280_humidity;BME280_pressure;Samples;Min_cycle;Max_cycle;Signal;HPM_P1;HPM_P2
2022/03/30 00:01:25;;;;;;;10.10;5.55;;;7.50;99.90;;;;;;5098244;28;20230;-83
2022/03/30 00:03:53;;;;;;;10.07;5.30;;;7.40;99.90;;;;;;5112417;28;20224;-82
2022/03/30 00:06:19;;;;;;;11.63;5.20;;;7.40;99.90;;;;;;5111320;28;20989;-82
2022/03/30 00:08:46;;;;;;;10.68;4.47;;;7.50;99.90;;;;;;5108403;28;20283;-83
2022/03/30 00:11:15;;;;;;;12.88;5.15;;;7.50;99.90;;;;;;5107028;28;20322;-81
2022/03/30 00:13:42;;;;;;;8.20;5.28;;;7.50;99.90;;;;;;5106282;28;20612;-82
2022/03/30 00:16:11;;;;;;;18.08;4.63;;;7.50;99.90;;;;;;5114180;28;20208;-81
2022/03/30 00:18:38;;;;;;;17.35;5.30;;;7.50;99.90;;;;;;5108657;28;20244;-84
2022/03/30 00:21:06;;;;;;;7.15;4.68;;;7.50;99.90;;;;;;5103883;28;20252;-81
2022/03/30 00:23:33;;;;;;;16.13;5.13;;;7.50;99.90;;;;;;5105382;28;20196;-79
2022/03/30 00:26:00;;;;;;;10.75;4.75;;;7.50;99.90;;;;;;5109236;28;20267;-82
2022/03/30 00:28:28;;;;;;;11.48;4.07;;;7.40;99.90;;;;;;5110812;28;20193;-80
2022/03/30 00:30:56;;;;;;;9.00;4.75;;;7.40;99.90;;;;;;5109999;28;20235;-82
2022/03/30 00:33:23;;;;;;;10.45;4.95;;;7.40;99.90;;;;;;5104721;28;20283;-81
2022/03/30 00:35:50;;;;;;;9.98;6.00;;;7.40;99.90;;;;;;5108534;28;20228;-82
2022/03/30 00:38:17;;;;;;;10.52;5.22;;;7.40;99.90;;;;;;5109448;28;20197;-81
2022/03/30 00:40:45;;;;;;;15.77;4.97;;;7.40;99.90;;;;;;5108616;28;20240;-81
2022/03/30 00:43:12;;;;;;;11.80;4.60;;;7.20;99.90;;;;;;5108542;28;20215;-82
2022/03/30 00:45:40;;;;;;;10.75;5.80;;;7.00;99.90;;;;;;5115357;28;20211;-81
2022/03/30 00:48:08;;;;;;;13.75;7.55;;;7.00;99.90;;;;;;5108396;28;20224;-82
2022/03/30 00:50:35;;;;;;;9.50;4.75;;;6.90;99.90;;;;;;5108788;28;20250;-82
2022/03/30 00:53:02;;;;;;;16.60;4.78;;;6.90;99.90;;;;;;5108445;28;20238;-81
2022/03/30 00:55:29;;;;;;;8.77;4.60;;;7.00;99.90;;;;;;5108698;28;20227;-81
2022/03/30 00:57:57;;;;;;;8.55;4.55;;;6.90;99.90;;;;;;5110108;28;20219;-81
2022/03/30 01:00:25;;;;;;;10.38;4.80;;;6.80;99.90;;;;;;5108319;28;20559;-83
2022/03/30 01:02:53;;;;;;;8.63;4.30;;;6.80;99.90;;;;;;5115923;28;20586;-80
2022/03/30 01:05:20;;;;;;;10.55;4.05;;;6.80;99.90;;;;;;5108916;28;20235;-81
2022/03/30 01:07:47;;;;;;;12.02;4.90;;;6.70;99.90;;;;;;5131094;28;20204;-82
2022/03/30 01:10:16;;;;;;;17.02;6.20;;;6.70;99.90;;;;;;5125934;28;20242;-80
2022/03/30 01:12:44;;;;;;;13.30;5.35;;;6.70;99.90;;;;;;5130096;28;20230;-80
2022/03/30 01:15:13;;;;;;;18.85;4.45;;;6.60;99.90;;;;;;5133568;28;20229;-81
2022/03/30 01:17:40;;;;;;;13.48;4.78;;;6.70;99.90;;;;;;5136061;27;20237;-81
2022/03/30 01:20:11;;;;;;;9.60;6.43;;;6.60;99.90;;;;;;5129586;27;20302;-81
2022/03/30 01:22:40;;;;;;;16.27;5.20;;;6.60;99.90;;;;;;5101920;28;20187;-81
2022/03/30 01:25:09;;;;;;;13.80;5.03;;;6.40;99.90;;;;;;5113348;28;20293;-83
2022/03/30 01:27:36;;;;;;;14.25;5.50;;;6.40;99.90;;;;;;5110792;28;20252;-81
2022/03/30 01:33:02;;;;;;;10.07;5.10;;;6.30;99.90;;;;;;5129053;28;20271;-83
2022/03/30 01:35:29;;;;;;;9.50;5.00;;;6.40;99.90;;;;;;5133255;28;20209;-79
2022/03/30 01:37:57;;;;;;;11.73;5.25;;;6.40;99.90;;;;;;5130199;28;20198;-83
2022/03/30 01:40:24;;;;;;;12.73;4.88;;;6.40;99.90;;;;;;5108597;28;20337;-82
2022/03/30 01:42:52;;;;;;;12.35;4.80;;;6.60;99.90;;;;;;5108675;28;20219;-82
2022/03/30 01:45:19;;;;;;;10.90;4.57;;;6.40;99.90;;;;;;5120439;28;20262;-82
2022/03/30 01:47:51;;;;;;;9.15;5.10;;;6.40;99.90;;;;;;5112874;28;20249;-82
2022/03/30 01:50:18;;;;;;;12.10;5.18;;;6.40;99.90;;;;;;5089871;28;20229;-80
2022/03/30 01:52:46;;;;;;;10.82;4.88;;;6.40;99.90;;;;;;5096229;28;20194;-83
2022/03/30 01:55:14;;;;;;;12.27;5.63;;;6.30;99.90;;;;;;5108869;28;20684;-83
2022/03/30 01:57:41;;;;;;;17.38;5.15;;;6.40;99.90;;;;;;5103467;28;20227;-82
2022/03/30 02:00:10;;;;;;;14.82;6.88;;;6.40;99.90;;;;;;5099566;28;20206;-80
2022/03/30 02:02:38;;;;;;;8.88;4.97;;;6.40;99.90;;;;;;5119730;27;20213;-82
2022/03/30 02:05:08;;;;;;;7.50;5.25;;;6.30;99.90;;;;;;5119894;28;20248;-79
2022/03/30 02:07:35;;;;;;;8.25;4.65;;;6.30;99.90;;;;;;5120156;28;20278;-82
2022/03/30 02:10:02;;;;;;;9.63;5.28;;;6.30;99.90;;;;;;5120031;28;20241;-79
2022/03/30 02:12:31;;;;;;;8.88;5.15;;;6.30;99.90;;;;;;5120160;28;20182;-79
2022/03/30 02:14:58;;;;;;;10.52;5.03;;;6.40;99.90;;;;;;5125886;27;20207;-80
2022/03/30 02:17:26;;;;;;;10.38;4.82;;;6.40;99.90;;;;;;5140656;27;20206;-79
2022/03/30 02:19:54;;;;;;;10.50;5.32;;;6.40;99.90;;;;;;5121183;28;20218;-80
2022/03/30 02:22:22;;;;;;;12.23;4.65;;;6.30;99.90;;;;;;5120192;28;20196;-81
2022/03/30 02:24:49;;;;;;;12.90;5.93;;;6.20;99.90;;;;;;5119899;28;20187;-80
2022/03/30 02:27:16;;;;;;;14.43;6.30;;;6.20;99.90;;;;;;5119814;28;20233;-78
2022/03/30 02:29:44;;;;;;;17.20;5.63;;;6.10;99.90;;;;;;5119097;28;20254;-80
2022/03/30 02:32:12;;;;;;;15.25;5.30;;;6.20;99.90;;;;;;5119315;28;20183;-78
2022/03/30 02:34:39;;;;;;;14.75;5.07;;;6.20;99.90;;;;;;5115829;28;20168;-81
2022/03/30 02:37:06;;;;;;;13.05;5.60;;;6.30;99.90;;;;;;5118150;28;20223;-80
2022/03/30 02:39:33;;;;;;;14.82;5.45;;;6.30;99.90;;;;;;5118768;28;20199;-78
2022/03/30 02:42:00;;;;;;;9.75;4.85;;;6.30;99.90;;;;;;5119224;28;20243;-80
2022/03/30 02:44:27;;;;;;;10.68;4.30;;;6.40;99.90;;;;;;5119219;28;20182;-79
2022/03/30 02:46:56;;;;;;;10.40;5.10;;;6.30;99.90;;;;;;5119146;28;20182;-79
2022/03/30 02:49:23;;;;;;;10.57;5.45;;;6.40;99.90;;;;;;5119199;28;20198;-80
2022/03/30 02:51:49;;;;;;;10.93;5.82;;;6.30;99.90;;;;;;5105548;28;20203;-80
2022/03/30 02:54:16;;;;;;;8.85;4.57;;;6.40;99.90;;;;;;5119575;27;20182;-79
2022/03/30 02:56:43;;;;;;;8.75;4.82;;;6.30;99.90;;;;;;5119846;28;20178;-79
2022/03/30 02:59:11;;;;;;;11.55;5.95;;;6.30;99.90;;;;;;5119435;28;20215;-78
2022/03/30 03:01:38;;;;;;;8.93;5.03;;;6.30;99.90;;;;;;5116051;28;20232;-79
2022/03/30 03:04:06;;;;;;;13.38;5.10;;;6.20;99.90;;;;;;5114078;28;20199;-80
2022/03/30 03:06:33;;;;;;;9.00;4.60;;;6.30;99.90;;;;;;5114494;28;20222;-82
2022/03/30 03:09:00;;;;;;;17.98;5.22;;;6.20;99.90;;;;;;5114053;28;20781;-80
2022/03/30 03:11:27;;;;;;;7.22;4.60;;;6.20;99.90;;;;;;5113806;28;20305;-80
2022/03/30 03:13:54;;;;;;;11.52;5.65;;;6.30;99.90;;;;;;5114385;28;20267;-79
2022/03/30 03:16:21;;;;;;;9.63;4.68;;;6.20;99.90;;;;;;5109604;28;20244;-82
2022/03/30 03:18:48;;;;;;;14.15;6.07;;;6.20;99.90;;;;;;5107303;28;20187;-81
2022/03/30 03:21:16;;;;;;;13.70;5.50;;;6.20;99.90;;;;;;5107036;27;20256;-82
2022/03/30 03:23:43;;;;;;;11.63;5.35;;;6.20;99.90;;;;;;5106179;28;20237;-82
2022/03/30 03:26:10;;;;;;;7.72;4.78;;;6.20;99.90;;;;;;5110799;28;20213;-81
2022/03/30 03:28:37;;;;;;;10.27;4.90;;;6.30;99.90;;;;;;5109154;28;20222;-81
2022/03/30 03:31:04;;;;;;;7.80;4.70;;;6.20;99.90;;;;;;5105639;28;20587;-81
2022/03/30 03:33:33;;;;;;;10.52;4.30;;;6.30;99.90;;;;;;5106752;28;20203;-81
2022/03/30 03:36:00;;;;;;;8.95;5.82;;;6.20;99.90;;;;;;5117386;28;20224;-80
2022/03/30 03:38:28;;;;;;;8.43;4.45;;;6.40;99.90;;;;;;5113893;28;20207;-80
2022/03/30 03:40:55;;;;;;;16.63;5.45;;;6.30;99.90;;;;;;5103828;28;20287;-79
2022/03/30 03:43:22;;;;;;;10.98;4.38;;;6.30;99.90;;;;;;5101288;28;20192;-81
2022/03/30 03:45:49;;;;;;;8.75;5.28;;;6.30;99.90;;;;;;5102771;28;20238;-82
2022/03/30 03:48:16;;;;;;;14.48;4.60;;;6.30;99.90;;;;;;5116932;27;20222;-80
2022/03/30 03:50:43;;;;;;;14.25;5.43;;;6.20;99.90;;;;;;5113005;28;20241;-81
2022/03/30 03:53:10;;;;;;;9.30;5.22;;;6.30;99.90;;;;;;5108738;28;20182;-80
2022/03/30 03:55:38;;;;;;;11.93;6.00;;;6.30;99.90;;;;;;5122095;27;20270;-80
2022/03/30 03:58:07;;;;;;;11.63;6.05;;;6.40;99.90;;;;;;5104953;28;20222;-81
2022/03/30 04:00:35;;;;;;;14.18;5.50;;;6.40;99.90;;;;;;5104986;28;20228;-82
2022/03/30 04:03:03;;;;;;;12.90;5.15;;;6.50;99.90;;;;;;5099892;28;20212;-80
2022/03/30 04:05:30;;;;;;;10.55;4.80;;;6.40;99.90;;;;;;5104850;28;20211;-83
2022/03/30 04:07:56;;;;;;;10.75;5.90;;;6.50;99.90;;;;;;5104772;28;20214;-81
2022/03/30 04:10:24;;;;;;;11.60;5.25;;;6.40;99.90;;;;;;5103618;28;20321;-81
2022/03/30 04:12:52;;;;;;;15.98;5.88;;;6.50;99.90;;;;;;5098534;28;20204;-83
2022/03/30 04:15:19;;;;;;;19.00;5.80;;;6.40;99.90;;;;;;5104848;28;20213;-82
2022/03/30 04:17:47;;;;;;;11.98;4.88;;;6.50;99.90;;;;;;5105502;28;20209;-83
2022/03/30 04:20:15;;;;;;;9.77;5.05;;;6.70;99.90;;;;;;5097789;28;20210;-81
2022/03/30 04:22:43;;;;;;;17.73;5.05;;;6.50;99.90;;;;;;5104355;28;20210;-83
2022/03/30 04:25:10;;;;;;;7.22;4.70;;;6.60;99.90;;;;;;5105449;28;20207;-82
2022/03/30 04:27:44;;;;;;;12.13;5.05;;;6.60;99.90;;;;;;5094271;28;20231;-80
2022/03/30 04:30:14;;;;;;;8.50;4.93;;;6.60;99.90;;;;;;5107372;27;20287;-81
2022/03/30 04:32:42;;;;;;;11.38;5.47;;;6.60;99.90;;;;;;5106400;28;20263;-81
2022/03/30 04:35:11;;;;;;;8.00;4.75;;;6.70;99.90;;;;;;5103476;28;20179;-81
2022/03/30 04:37:38;;;;;;;12.23;6.45;;;6.80;99.90;;;;;;5099342;28;20186;-81
2022/03/30 04:40:06;;;;;;;12.38;4.60;;;6.50;99.90;;;;;;5107969;28;20694;-82
2022/03/30 04:42:33;;;;;;;8.63;5.18;;;6.80;99.90;;;;;;5101714;28;20344;-81
2022/03/30 04:45:00;;;;;;;12.70;6.85;;;6.80;99.90;;;;;;5085159;28;20234;-82
2022/03/30 04:47:29;;;;;;;9.50;3.90;;;6.80;99.90;;;;;;5082368;28;20291;-82
2022/03/30 04:49:56;;;;;;;10.30;4.90;;;6.90;99.90;;;;;;5091530;28;20257;-82
2022/03/30 04:52:22;;;;;;;11.18;4.88;;;6.90;99.90;;;;;;5104109;27;20214;-81
2022/03/30 04:54:51;;;;;;;9.30;4.75;;;7.00;99.90;;;;;;5105747;28;20250;-83
2022/03/30 04:57:17;;;;;;;9.88;4.82;;;6.90;99.90;;;;;;5105545;28;20611;-83
2022/03/30 04:59:44;;;;;;;12.63;5.38;;;7.00;99.90;;;;;;5114038;28;20242;-82
2022/03/30 05:02:11;;;;;;;12.23;5.43;;;7.10;99.90;;;;;;5111098;28;20225;-79
2022/03/30 05:04:39;;;;;;;11.23;4.35;;;7.00;99.90;;;;;;5113655;28;20209;-80
2022/03/30 05:07:06;;;;;;;13.90;4.38;;;7.10;99.90;;;;;;5113491;28;20202;-82
2022/03/30 05:09:33;;;;;;;11.05;5.15;;;7.10;99.90;;;;;;5110840;28;20632;-84
2022/03/30 05:12:02;;;;;;;10.15;5.20;;;7.10;99.90;;;;;;5109514;28;20207;-83
2022/03/30 05:14:29;;;;;;;8.65;4.38;;;7.10;99.90;;;;;;5107673;28;20200;-81
2022/03/30 05:16:56;;;;;;;14.65;5.22;;;7.10;99.90;;;;;;5115378;28;20222;-85
2022/03/30 05:19:23;;;;;;;8.73;4.55;;;7.10;99.90;;;;;;5108199;28;20230;-80
2022/03/30 05:21:51;;;;;;;14.20;4.18;;;7.10;99.90;;;;;;5095955;28;20207;-85
2022/03/30 05:24:19;;;;;;;6.95;4.35;;;7.10;99.90;;;;;;5108272;28;20195;-85
2022/03/30 05:26:47;;;;;;;15.05;5.80;;;7.10;99.90;;;;;;5109195;28;20257;-83
2022/03/30 05:29:14;;;;;;;18.45;5.72;;;7.10;99.90;;;;;;5108286;28;20230;-82
2022/03/30 05:31:44;;;;;;;11.48;6.97;;;7.10;99.90;;;;;;5109989;28;20606;-86
2022/03/30 05:34:11;;;;;;;18.27;7.35;;;7.10;99.90;;;;;;5109451;28;20200;-86
2022/03/30 05:36:38;;;;;;;16.52;7.40;;;7.30;99.90;;;;;;5115254;28;20191;-83
2022/03/30 05:39:07;;;;;;;17.00;7.07;;;7.20;99.90;;;;;;5108004;28;20208;-85
2022/03/30 05:41:34;;;;;;;12.27;7.50;;;7.20;99.90;;;;;;5116431;28;20242;-85
2022/03/30 05:44:02;;;;;;;12.77;7.85;;;7.10;99.90;;;;;;5116492;28;20659;-83
2022/03/30 05:46:30;;;;;;;18.70;7.30;;;7.10;99.90;;;;;;5122680;28;20230;-82
2022/03/30 05:48:57;;;;;;;16.35;8.52;;;7.00;99.90;;;;;;5112253;28;20459;-81
2022/03/30 05:51:24;;;;;;;15.18;7.45;;;6.90;99.90;;;;;;5104700;28;20211;-81
2022/03/30 05:53:51;;;;;;;14.25;7.95;;;6.90;99.90;;;;;;5112546;28;20198;-81
2022/03/30 05:56:59;;;;;;;12.98;5.88;;;7.00;99.90;;;;;;5103220;28;20198;-81
2022/03/30 05:59:06;;;;;;;14.20;6.80;;;7.00;99.90;;;;;;5109806;28;20201;-80
2022/03/30 06:01:34;;;;;;;12.88;6.25;;;6.90;99.90;;;;;;5111354;28;20221;-83
2022/03/30 06:04:01;;;;;;;17.73;7.75;;;6.90;99.90;;;;;;5113569;28;20186;-81
2022/03/30 06:06:31;;;;;;;11.23;6.57;;;6.90;99.90;;;;;;5113795;28;20521;-81
2022/03/30 06:08:58;;;;;;;11.13;6.85;;;6.90;99.90;;;;;;5112543;28;20207;-82
2022/03/30 06:11:26;;;;;;;15.85;6.10;;;6.90;99.90;;;;;;5111505;28;20235;-80
2022/03/30 06:13:53;;;;;;;17.10;7.50;;;6.80;99.90;;;;;;5100747;28;20203;-81
2022/03/30 06:16:21;;;;;;;13.60;7.28;;;6.80;99.90;;;;;;5117987;28;20225;-78
2022/03/30 06:18:47;;;;;;;14.95;7.10;;;6.80;99.90;;;;;;5107354;28;20190;-81
2022/03/30 06:21:14;;;;;;;15.68;7.53;;;6.80;99.90;;;;;;5103731;28;20225;-78
2022/03/30 06:23:42;;;;;;;16.70;7.70;;;6.80;99.90;;;;;;5114684;28;20199;-78
2022/03/30 06:26:09;;;;;;;12.02;6.60;;;6.90;99.90;;;;;;5111297;28;20311;-79
2022/03/30 06:28:37;;;;;;;11.50;6.22;;;6.90;99.90;;;;;;5118139;28;20210;-79
2022/03/30 06:31:04;;;;;;;21.25;7.38;;;6.90;99.90;;;;;;5117916;28;20239;-80
2022/03/30 06:33:31;;;;;;;18.00;7.82;;;6.90;99.90;;;;;;5113535;28;20191;-78
2022/03/30 06:35:58;;;;;;;15.68;6.88;;;6.80;99.90;;;;;;5122022;27;20204;-82
2022/03/30 06:38:25;;;;;;;14.65;7.25;;;6.70;99.90;;;;;;5115623;28;20175;-79
2022/03/30 06:40:58;;;;;;;14.65;6.90;;;6.70;99.90;;;;;;5115691;28;20221;-80
2022/03/30 06:43:25;;;;;;;10.85;6.43;;;6.60;99.90;;;;;;5102443;28;20259;-80
2022/03/30 06:45:53;;;;;;;23.27;5.70;;;6.60;99.90;;;;;;5109383;28;20205;-81
2022/03/30 06:48:21;;;;;;;19.65;4.97;;;6.50;99.90;;;;;;5112441;28;20214;-80
2022/03/30 06:50:48;;;;;;;15.65;6.65;;;6.60;99.90;;;;;;5107898;28;20222;-81
2022/03/30 06:53:15;;;;;;;11.15;5.85;;;6.60;99.90;;;;;;5107012;28;20684;-81
2022/03/30 06:55:42;;;;;;;14.32;5.72;;;6.50;99.90;;;;;;5100289;28;20237;-80
2022/03/30 06:58:08;;;;;;;16.88;5.38;;;6.50;99.90;;;;;;5104243;28;20226;-80
2022/03/30 07:00:35;;;;;;;11.70;5.70;;;6.70;99.90;;;;;;5103140;28;20652;-79
2022/03/30 07:03:04;;;;;;;14.90;6.07;;;6.50;99.90;;;;;;5101697;28;20296;-81
2022/03/30 07:05:31;;;;;;;11.43;5.93;;;6.60;99.90;;;;;;5103256;28;20281;-80
2022/03/30 07:10:42;;;;;;;15.70;5.55;;;6.70;99.90;;;;;;5102558;28;20254;-80
2022/03/30 07:13:09;;;;;;;10.85;6.10;;;6.70;99.90;;;;;;5109137;28;20246;-80
2022/03/30 07:15:38;;;;;;;17.48;5.28;;;6.80;99.90;;;;;;5115758;28;20263;-82
2022/03/30 07:18:08;;;;;;;11.57;6.47;;;6.80;99.90;;;;;;5099489;28;20203;-79
2022/03/30 07:20:36;;;;;;;12.32;5.00;;;6.80;99.90;;;;;;5113809;28;20261;-81
2022/03/30 07:23:03;;;;;;;9.35;4.80;;;6.80;99.90;;;;;;5109375;28;20204;-82
2022/03/30 07:25:31;;;;;;;14.90;5.90;;;6.90;99.90;;;;;;5110230;28;20201;-85
2022/03/30 07:27:59;;;;;;;10.07;5.55;;;6.90;99.90;;;;;;5105786;28;20227;-83
2022/03/30 07:30:27;;;;;;;11.80;5.60;;;7.00;99.90;;;;;;5100836;28;20725;-79
2022/03/30 07:32:56;;;;;;;16.00;6.15;;;7.00;99.90;;;;;;5106169;28;20286;-80
2022/03/30 07:35:27;;;;;;;16.13;7.10;;;7.00;99.90;;;;;;5116517;28;20629;-80
2022/03/30 07:37:55;;;;;;;8.40;5.63;;;7.10;99.90;;;;;;5103459;28;20191;-81
2022/03/30 07:40:24;;;;;;;13.32;7.63;;;7.10;99.90;;;;;;5101391;28;20315;-81
2022/03/30 07:42:52;;;;;;;13.00;6.20;;;7.10;99.90;;;;;;5115986;28;20267;-80
2022/03/30 07:45:20;;;;;;;11.07;5.75;;;7.20;99.90;;;;;;5106318;28;20220;-81
2022/03/30 07:47:47;;;;;;;20.63;7.72;;;7.20;99.90;;;;;;5104958;28;20303;-81
2022/03/30 07:50:15;;;;;;;25.48;6.25;;;7.10;99.90;;;;;;5100438;28;20314;-81
2022/03/30 07:52:45;;;;;;;13.38;6.78;;;7.20;99.90;;;;;;5105439;28;20657;-81
2022/03/30 07:55:12;;;;;;;14.45;6.90;;;7.20;99.90;;;;;;5106931;28;20256;-80
2022/03/30 07:57:42;;;;;;;10.75;6.30;;;7.20;99.90;;;;;;5105418;28;20204;-81
2022/03/30 08:00:11;;;;;;;8.95;5.78;;;7.30;99.90;;;;;;5104597;28;20253;-81
2022/03/30 08:02:38;;;;;;;15.65;8.68;;;7.30;99.90;;;;;;5104776;28;20199;-79
2022/03/30 08:05:08;;;;;;;10.57;4.53;;;7.30;99.90;;;;;;5096303;28;20212;-82
2022/03/30 08:07:35;;;;;;;7.78;4.53;;;7.30;99.90;;;;;;5106771;28;20247;-82
2022/03/30 08:10:03;;;;;;;11.10;5.68;;;7.10;99.90;;;;;;5108002;28;20225;-81
2022/03/30 08:12:30;;;;;;;8.90;4.05;;;7.10;99.90;;;;;;5103094;28;20222;-82
2022/03/30 08:14:57;;;;;;;7.30;4.57;;;7.10;99.90;;;;;;5103016;28;20287;-82
2022/03/30 08:17:25;;;;;;;8.98;4.75;;;7.10;99.90;;;;;;5102445;28;20304;-82
2022/03/30 08:19:52;;;;;;;15.00;5.10;;;7.20;99.90;;;;;;5105692;28;20723;-81
2022/03/30 08:22:28;;;;;;;14.32;6.10;;;7.30;99.90;;;;;;5101667;28;20690;-80
2022/03/30 08:24:56;;;;;;;9.45;3.83;;;7.20;99.90;;;;;;5096109;28;20452;-80
2022/03/30 08:27:26;;;;;;;9.43;4.32;;;7.20;99.90;;;;;;5103648;28;20200;-80
2022/03/30 08:29:53;;;;;;;9.95;5.20;;;7.20;99.90;;;;;;5102981;28;20227;-80
2022/03/30 08:32:21;;;;;;;10.02;5.05;;;7.30;99.90;;;;;;5104390;28;20262;-81
2022/03/30 08:34:50;;;;;;;15.10;5.18;;;7.30;99.90;;;;;;5107906;28;20218;-81
2022/03/30 08:37:17;;;;;;;9.63;5.07;;;7.40;99.90;;;;;;5106673;28;20196;-82
2022/03/30 08:39:44;;;;;;;8.63;4.18;;;7.30;99.90;;;;;;5106116;28;20230;-81
2022/03/30 08:42:14;;;;;;;6.15;3.38;;;7.10;99.90;;;;;;5100690;28;20229;-81
2022/03/30 08:44:43;;;;;;;4.55;2.65;;;7.20;99.90;;;;;;5110303;28;20209;-82
2022/03/30 08:47:12;;;;;;;18.05;5.28;;;7.50;99.90;;;;;;5108978;28;20383;-81
2022/03/30 08:49:39;;;;;;;10.25;3.47;;;7.40;99.90;;;;;;5112654;28;20290;-81
2022/03/30 08:52:07;;;;;;;10.20;4.00;;;7.20;99.90;;;;;;5111662;28;20222;-81
2022/03/30 08:54:35;;;;;;;13.52;5.03;;;7.40;99.90;;;;;;5116178;28;20244;-81
2022/03/30 08:57:04;;;;;;;11.13;5.28;;;7.40;99.90;;;;;;5115295;28;20228;-81
2022/03/30 08:59:31;;;;;;;11.07;4.90;;;7.40;99.90;;;;;;5112129;28;20229;-82
2022/03/30 09:02:00;;;;;;;11.43;5.57;;;7.50;99.90;;;;;;5113911;28;20195;-80
2022/03/30 09:04:27;;;;;;;9.82;4.85;;;7.50;99.90;;;;;;5105079;28;20240;-80
2022/03/30 09:06:56;;;;;;;8.35;4.72;;;7.60;99.90;;;;;;5111633;28;20201;-80
2022/03/30 09:09:31;;;;;;;9.85;5.38;;;7.70;99.90;;;;;;5123391;28;20270;-80
2022/03/30 09:11:59;;;;;;;8.43;4.40;;;7.80;99.90;;;;;;5107811;28;20219;-80
2022/03/30 09:14:28;;;;;;;10.00;5.53;;;7.90;99.90;;;;;;5104689;28;20242;-80
2022/03/30 09:16:57;;;;;;;12.05;4.97;;;8.00;99.90;;;;;;5110496;28;20204;-81
2022/03/30 09:19:25;;;;;;;8.63;4.63;;;8.10;99.90;;;;;;5113881;28;20197;-83
2022/03/30 09:21:57;;;;;;;7.68;3.85;;;8.20;99.90;;;;;;5111863;28;20212;-81
2022/03/30 09:24:26;;;;;;;8.43;5.03;;;8.20;99.90;;;;;;5097925;28;20712;-81
2022/03/30 09:26:54;;;;;;;8.00;5.60;;;8.20;99.90;;;;;;5110242;28;20292;-81
2022/03/30 09:29:22;;;;;;;14.10;5.75;;;8.30;99.90;;;;;;5107975;28;20228;-81
2022/03/30 09:31:50;;;;;;;12.90;8.15;;;8.30;99.90;;;;;;5104941;28;20233;-83
2022/03/30 09:34:17;;;;;;;12.95;9.05;;;8.10;99.90;;;;;;5117652;28;20203;-83
2022/03/30 09:36:46;;;;;;;14.13;8.90;;;8.10;99.90;;;;;;5114241;28;20650;-80
2022/03/30 09:39:29;;;;;;;16.55;8.98;;;8.10;99.90;;;;;;5101128;28;20291;-80
2022/03/30 09:41:59;;;;;;;11.02;8.35;;;8.10;99.90;;;;;;5107184;28;20283;-81
2022/03/30 09:44:27;;;;;;;9.88;8.20;;;8.00;99.90;;;;;;5107450;28;20201;-83
2022/03/30 09:46:57;;;;;;;13.90;7.68;;;8.00;99.90;;;;;;5104323;28;20288;-81
2022/03/30 09:49:35;;;;;;;9.80;8.27;;;8.00;99.90;;;;;;5107316;28;20252;-82
2022/03/30 09:52:15;;;;;;;10.90;6.93;;;8.00;99.90;;;;;;5107846;28;20248;-79
2022/03/30 09:54:47;;;;;;;8.82;5.10;;;8.10;99.90;;;;;;5108490;28;20190;-80
2022/03/30 09:57:15;;;;;;;7.13;4.90;;;8.00;99.90;;;;;;5103064;28;20249;-80
2022/03/30 10:00:05;;;;;;;11.05;4.55;;;8.00;99.90;;;;;;5118959;28;20205;-81
2022/03/30 10:02:52;;;;;;;9.55;4.82;;;7.90;99.90;;;;;;5112900;28;20241;-80
2022/03/30 10:05:21;;;;;;;7.75;4.68;;;7.90;99.90;;;;;;5119012;28;20191;-80
2022/03/30 10:07:50;;;;;;;4.85;4.35;;;7.80;99.90;;;;;;5121197;27;20191;-80
2022/03/30 10:10:19;;;;;;;8.93;5.22;;;7.80;99.90;;;;;;5115912;28;20490;-76
2022/03/30 10:12:46;;;;;;;5.72;5.05;;;7.80;99.90;;;;;;5111806;28;20194;-79
2022/03/30 10:15:14;;;;;;;7.22;6.20;;;7.80;99.90;;;;;;5109183;28;20260;-80
2022/03/30 10:17:41;;;;;;;9.48;5.35;;;7.90;99.90;;;;;;5101075;28;20237;-81
2022/03/30 10:20:10;;;;;;;8.35;6.22;;;7.80;99.90;;;;;;5115351;28;20284;-78
2022/03/30 10:23:06;;;;;;;6.00;5.40;;;7.90;99.90;;;;;;5116471;28;20222;-81
2022/03/30 10:25:52;;;;;;;8.52;5.45;;;7.90;99.90;;;;;;5106011;28;20232;-79
2022/03/30 10:28:22;;;;;;;9.32;4.93;;;7.90;99.90;;;;;;5102068;28;20205;-82
2022/03/30 10:30:53;;;;;;;7.07;4.50;;;8.00;99.90;;;;;;5106928;28;20883;-83
2022/03/30 10:33:30;;;;;;;7.60;4.60;;;8.00;99.90;;;;;;5109174;28;20235;-81
2022/03/30 10:35:58;;;;;;;5.40;4.90;;;8.00;99.90;;;;;;5108491;28;20522;-82
2022/03/30 10:38:26;;;;;;;5.72;4.40;;;8.00;99.90;;;;;;5109728;28;20182;-80
2022/03/30 10:41:09;;;;;;;5.78;5.05;;;8.00;99.90;;;;;;5111769;28;20290;-85
2022/03/30 10:43:36;;;;;;;6.43;4.93;;;7.90;99.90;;;;;;5110968;28;20211;-80
2022/03/30 10:46:04;;;;;;;8.32;5.15;;;7.80;99.90;;;;;;5111213;28;20266;-81
2022/03/30 10:48:38;;;;;;;5.82;5.25;;;7.80;99.90;;;;;;5109530;28;20205;-82
2022/03/30 10:51:19;;;;;;;7.20;5.00;;;7.80;99.90;;;;;;5108801;28;20304;-78
2022/03/30 10:53:49;;;;;;;9.85;5.90;;;7.70;99.90;;;;;;5112021;28;20203;-79
2022/03/30 10:56:34;;;;;;;6.93;5.68;;;7.70;99.90;;;;;;5108078;28;20204;-78
2022/03/30 10:59:12;;;;;;;6.32;5.00;;;7.60;99.90;;;;;;5115633;27;20196;-78
2022/03/30 11:01:41;;;;;;;7.10;5.38;;;7.60;99.90;;;;;;5120197;28;20207;-78
2022/03/30 11:04:25;;;;;;;7.15;5.65;;;7.60;99.90;;;;;;5108316;28;20204;-83
2022/03/30 11:07:31;;;;;;;6.95;5.63;;;7.60;99.90;;;;;;5109089;28;20585;-81
2022/03/30 11:10:22;;;;;;;6.18;5.10;;;7.60;99.90;;;;;;5026965;28;20235;-82
2022/03/30 11:13:06;;;;;;;6.35;5.45;;;7.60;99.90;;;;;;5115052;28;20236;-84
2022/03/30 11:16:11;;;;;;;6.70;6.10;;;7.50;99.90;;;;;;5102288;28;20233;-80
2022/03/30 11:18:54;;;;;;;7.03;5.60;;;7.50;99.90;;;;;;5107598;28;20199;-81
2022/03/30 11:21:21;;;;;;;7.80;7.00;;;7.70;99.90;;;;;;5100717;28;20259;-80
2022/03/30 11:23:58;;;;;;;6.80;5.45;;;7.50;99.90;;;;;;5113276;28;20232;-81
2022/03/30 11:27:01;;;;;;;5.13;4.55;;;7.60;99.90;;;;;;5110037;28;20212;-79
2022/03/30 11:29:52;;;;;;;7.95;5.55;;;7.50;99.90;;;;;;5108318;28;20200;-77
2022/03/30 11:32:38;;;;;;;7.25;5.68;;;7.70;99.90;;;;;;5102090;28;20205;-83
2022/03/30 11:35:10;;;;;;;7.97;5.68;;;7.70;99.90;;;;;;5108867;28;20207;-78
2022/03/30 11:37:38;;;;;;;5.93;5.43;;;7.80;99.90;;;;;;5107358;28;20206;-80
2022/03/30 11:40:07;;;;;;;7.15;5.18;;;7.80;99.90;;;;;;5107795;28;20217;-82
2022/03/30 11:42:36;;;;;;;6.60;5.65;;;7.90;99.90;;;;;;5109006;28;20217;-83
2022/03/30 11:45:15;;;;;;;6.40;5.30;;;8.00;99.90;;;;;;5108496;28;20212;-83
2022/03/30 11:47:44;;;;;;;7.03;5.78;;;8.10;99.90;;;;;;5109641;28;20197;-83
2022/03/30 11:50:11;;;;;;;5.53;4.55;;;8.10;99.90;;;;;;5099626;28;20243;-81
2022/03/30 11:52:38;;;;;;;7.68;5.43;;;8.20;99.90;;;;;;5109142;28;20205;-80
2022/03/30 11:55:07;;;;;;;6.63;5.93;;;8.10;99.90;;;;;;5108672;28;20226;-82
2022/03/30 11:57:40;;;;;;;7.53;5.40;;;8.20;99.90;;;;;;5109749;28;20220;-80
2022/03/30 12:00:10;;;;;;;9.32;6.00;;;8.10;99.90;;;;;;5100042;28;20231;-80
2022/03/30 12:02:37;;;;;;;7.05;5.80;;;8.10;99.90;;;;;;5110820;28;20193;-82
2022/03/30 12:05:05;;;;;;;11.27;7.40;;;8.10;99.90;;;;;;5108455;28;20209;-79
2022/03/30 12:07:35;;;;;;;7.03;4.95;;;8.10;99.90;;;;;;5104942;28;20292;-85
2022/03/30 12:10:04;;;;;;;7.38;5.63;;;8.10;99.90;;;;;;5106462;28;20236;-81
2022/03/30 12:12:35;;;;;;;8.07;5.93;;;8.20;99.90;;;;;;5111248;28;20205;-80
2022/03/30 12:15:06;;;;;;;9.82;6.88;;;8.30;99.90;;;;;;5112600;28;20205;-81
2022/03/30 12:17:34;;;;;;;6.68;5.90;;;8.30;99.90;;;;;;5127124;28;20196;-80
2022/03/30 12:20:02;;;;;;;6.95;5.50;;;8.30;99.90;;;;;;5119275;28;20225;-82
2022/03/30 12:22:30;;;;;;;7.32;6.63;;;8.40;99.90;;;;;;5117545;28;20288;-80
2022/03/30 12:24:57;;;;;;;7.50;6.45;;;8.30;99.90;;;;;;5117370;27;20201;-77
2022/03/30 12:27:25;;;;;;;6.75;6.10;;;8.40;99.90;;;;;;5122920;28;20240;-80
2022/03/30 12:29:55;;;;;;;7.43;6.68;;;8.40;99.90;;;;;;5107890;28;20261;-81
2022/03/30 12:32:24;;;;;;;11.23;6.80;;;8.40;99.90;;;;;;5117246;28;20209;-78
2022/03/30 12:35:05;;;;;;;9.65;6.65;;;8.30;99.90;;;;;;5119430;28;20201;-77
2022/03/30 12:37:32;;;;;;;11.15;6.60;;;8.40;99.90;;;;;;5124645;27;20182;-81
2022/03/30 12:40:09;;;;;;;8.77;6.28;;;8.30;99.90;;;;;;5119982;28;20245;-81
2022/03/30 12:42:36;;;;;;;7.18;6.35;;;8.30;99.90;;;;;;5112271;28;20201;-83
2022/03/30 12:45:08;;;;;;;7.75;6.88;;;8.30;99.90;;;;;;5100515;28;20272;-81
2022/03/30 12:47:39;;;;;;;8.88;6.75;;;8.30;99.90;;;;;;5122687;28;20209;-78
2022/03/30 12:50:08;;;;;;;6.60;5.85;;;8.30;99.90;;;;;;5105540;28;20244;-81
2022/03/30 12:52:40;;;;;;;7.93;6.80;;;8.40;99.90;;;;;;5119803;28;20231;-79
2022/03/30 12:55:20;;;;;;;9.30;6.18;;;8.50;99.90;;;;;;5109098;28;20336;-82
2022/03/30 12:57:55;;;;;;;8.38;6.43;;;8.50;99.90;;;;;;5113357;28;20256;-81
2022/03/30 13:00:25;;;;;;;8.23;7.43;;;8.60;99.90;;;;;;5106085;28;20220;-81
2022/03/30 13:03:16;;;;;;;7.05;5.72;;;8.60;99.90;;;;;;5113273;28;20197;-84
2022/03/30 13:05:55;;;;;;;6.57;5.97;;;8.70;99.90;;;;;;5096987;28;20232;-83
2022/03/30 13:08:22;;;;;;;6.60;5.90;;;8.90;99.90;;;;;;5113820;28;20201;-79